Nearby METAR Reports

Meteorological Terminal Air Report (METAR)

K3I2 - Pt Pleasant, West Virginia, USA
Distance from station: S 11mi, 18km
Updated: Sun, 25-Jul-2021 3:55pm EDT
Clear
Clear
 Wind from calm
Wind: Calm
Temperature: 88°F , 31°C
Heat Index: 96°F , 36°C
Dew Point: 73°F , 23°C
Humidity: 62%
Barometer: 29.96 inHg , 1014.6 hPa
Clouds: Clear
Visibility: 7 miles , 11 km
2021/07/25 19:55 K3I2 251955Z AUTO 00000KT 7SM CLR 31/23 A2996 RMK AO2 T03060228
KUNI - Athens, Ohio, USA
Distance from station: NW 13mi, 21km
Updated: Sun, 25-Jul-2021 3:55pm EDT
Overcast
Overcast
 Wind from WSW
Wind: WSW 5 mph , 7 km/h
Temperature: 86°F , 30°C
Heat Index: 93°F , 34°C
Dew Point: 73°F , 23°C
Humidity: 66%
Barometer: 29.95 inHg , 1014.2 hPa
Clouds: Overcast
Visibility: 10 miles , 16 km
Cloud details: Partly cloudy 2500 ft
Mostly cloudy 3200 ft
Overcast 4500 ft
2021/07/25 19:55 KUNI 251955Z AUTO 24004KT 10SM SCT025 BKN032 OVC045 30/23 A2995 RMK AO2 T02950227
 
KPKB - Parkersburg, West Virginia, USA
Distance from station: ENE 40mi, 65km
Updated: Sun, 25-Jul-2021 3:53pm EDT
Mostly cloudy
Mostly cloudy
 Wind from S
Wind: S 3 mph , 6 km/h
Temperature: 84°F , 29°C
Heat Index: 89°F , 32°C
Dew Point: 72°F , 22°C
Humidity: 66%
Barometer: 29.96 inHg , 1014.6 hPa
Clouds: Mostly cloudy
Visibility: 8 miles , 13 km
Cloud details: Partly cloudy 2600 ft
Mostly cloudy 5500 ft
2021/07/25 19:53 KPKB 251953Z 17003KT 8SM SCT026 BKN055 29/22 A2996 RMK AO2 SLP136 T02890217 $
KCRW - Charleston, West Virginia, USA
Distance from station: SSE 55mi, 88km
Updated: Sun, 25-Jul-2021 3:54pm EDT
Mostly cloudy
Mostly cloudy
 Wind from WSW
Wind: WSW 3 mph , 6 km/h
Temperature: 86°F , 30°C
Heat Index: 93°F , 34°C
Dew Point: 73°F , 23°C
Humidity: 66%
Barometer: 29.96 inHg , 1014.6 hPa
Clouds: Mostly cloudy
Visibility: 10 miles , 16 km
Cloud details: Partly cloudy 4700 ft
Mostly cloudy 9000 ft
Mostly cloudy 20000 ft
2021/07/25 19:54 KCRW 251954Z 25003KT 10SM SCT047 BKN090 BKN200 30/23 A2996 RMK AO2 LTG DSNT SE RAB00E19 TSE34 SLP134 OCNL LTG DSNT SE-S CB DSNT SE-S TS MOVD E P0000 T03000233 $
 
KHTS - Huntington, West Virginia, USA
Distance from station: SSW 55mi, 89km
Updated: Sun, 25-Jul-2021 3:51pm EDT
Mostly cloudy
Mostly cloudy
 Wind from NW
Wind: NW 3 mph , 6 km/h
Temperature: 88°F , 31°C
Heat Index: 96°F , 36°C
Dew Point: 73°F , 23°C
Humidity: 62%
Barometer: 29.94 inHg , 1013.9 hPa
Clouds: Mostly cloudy
Visibility: 10 miles , 16 km
Cloud details: Mostly cloudy 3100 ft
2021/07/25 19:51 KHTS 251951Z 31003KT 10SM BKN031 31/23 A2994 RMK AO2 LTG DSNT S SLP130 T03060233
KLHQ - Lancaster, Ohio, USA
Distance from station: NW 56mi, 91km
Updated: Sun, 25-Jul-2021 3:53pm EDT
Few Clouds
Few Clouds
 Wind from calm
Wind: Calm
Temperature: 88°F , 31°C
Heat Index: 95°F , 35°C
Dew Point: 72°F , 22°C
Humidity: 59%
Barometer: 29.95 inHg , 1014.2 hPa
Clouds: Few Clouds
Visibility: 10 miles , 16 km
Cloud details: Few Clouds 4100 ft
2021/07/25 19:53 KLHQ 251953Z AUTO 00000KT 10SM FEW041 31/22 A2995 RMK AO2 SLP133 T03060217
 
KZZV - Zanesville, Ohio, USA
Distance from station: N 61mi, 99km
Updated: Sun, 25-Jul-2021 3:53pm EDT
Overcast
Overcast
 Wind from S
Wind: S 7 mph , 11 km/h
Temperature: 84°F , 29°C
Heat Index: 89°F , 32°C
Dew Point: 72°F , 22°C
Humidity: 66%
Barometer: 29.94 inHg , 1013.9 hPa
Clouds: Overcast
Visibility: 10 miles , 16 km
Cloud details: Mostly cloudy 3400 ft
Overcast 4600 ft
2021/07/25 19:53 KZZV 251953Z AUTO 18006KT 10SM BKN034 OVC046 29/22 A2994 RMK AO2 SLP130 T02940217
KLCK - Rickenbacker Ang, Ohio, USA
Distance from station: NW 68mi, 110km
Updated: Sun, 25-Jul-2021 3:55pm EDT
Overcast
Overcast
 Wind from SW
Wind: SW 7 mph , 11 km/h
Temperature: 90°F , 32°C
Heat Index: 97°F , 36°C
Dew Point: 72°F , 22°C
Humidity: 55%
Barometer: 29.94 inHg , 1013.9 hPa
Clouds: Overcast
Visibility: 10 miles , 16 km
Cloud details: Mostly cloudy 3800 ft
Overcast 4500 ft
2021/07/25 19:55 KLCK 251955Z AUTO 23006KT 10SM BKN038 OVC045 32/22 A2994 RMK AO2 T03180223
 
KVTA - Newark, Ohio, USA
Distance from station: NNW 68mi, 110km
Updated: Sun, 25-Jul-2021 3:54pm EDT
Mostly cloudy
Mostly cloudy
 Wind from varies
Wind: varies 5 mph , 7 km/h
Temperature: 90°F , 32°C
Heat Index: 93°F , 34°C
Dew Point: 66°F , 19°C
Humidity: 46%
Barometer: 29.93 inHg , 1013.5 hPa
Clouds: Mostly cloudy
Visibility: 10 miles , 16 km
Cloud details: Few Clouds 4100 ft
Mostly cloudy 6000 ft
2021/07/25 19:54 KVTA 251954Z AUTO VRB04KT 10SM FEW041 BKN060 32/19 A2993 RMK AO2 SLP127 T03170189 PNO $